createdAt,value
2022-10-03T00:02:00.356Z,9.17
2022-10-03T00:06:49.007Z,10.30
2022-10-03T00:11:10.985Z,13.57
2022-10-03T00:15:35.539Z,17.00
2022-10-03T00:19:47.727Z,14.47
2022-10-03T00:24:19.773Z,13.73
2022-10-03T00:28:39.777Z,16.17
2022-10-03T00:32:58.103Z,14.53
2022-10-03T00:37:21.767Z,16.43
2022-10-03T00:42:35.696Z,16.63
2022-10-03T00:46:59.546Z,15.63
2022-10-03T00:51:22.174Z,7.93
2022-10-03T00:55:54.005Z,15.93
2022-10-03T01:00:34.787Z,12.37
2022-10-03T01:05:07.696Z,11.80
2022-10-03T01:09:27.408Z,12.83
2022-10-03T01:14:01.419Z,14.43
2022-10-03T01:18:16.149Z,19.47
2022-10-03T01:22:24.805Z,15.33
2022-10-03T01:26:46.231Z,14.93
2022-10-03T01:30:57.564Z,13.50
2022-10-03T01:36:07.278Z,18.27
2022-10-03T01:40:26.339Z,18.37
2022-10-03T01:44:55.516Z,12.53
2022-10-03T01:49:30.161Z,18.27
2022-10-03T01:53:47.779Z,17.07
2022-10-03T01:58:18.443Z,16.10
2022-10-03T02:02:34.219Z,16.40
2022-10-03T02:07:07.968Z,11.20
2022-10-03T02:11:09.103Z,15.50
2022-10-03T02:15:06.001Z,15.73
2022-10-03T02:19:22.786Z,15.37
2022-10-03T02:23:41.943Z,15.70
2022-10-03T02:28:23.567Z,18.27
2022-10-03T02:32:52.073Z,16.93
2022-10-03T02:37:23.757Z,17.27
2022-10-03T02:41:52.396Z,19.30
2022-10-03T02:46:42.670Z,19.37
2022-10-03T02:51:07.076Z,21.27
2022-10-03T02:55:47.337Z,11.10
2022-10-03T03:00:07.498Z,13.90
2022-10-03T03:04:56.700Z,12.37
2022-10-03T03:09:52.993Z,18.27
2022-10-03T03:14:09.556Z,11.23
2022-10-03T03:18:39.620Z,14.17
2022-10-03T03:22:50.860Z,13.83
2022-10-03T03:27:39.672Z,19.57
2022-10-03T03:32:03.047Z,15.13
2022-10-03T03:36:15.154Z,20.40
2022-10-03T03:41:03.113Z,17.50
2022-10-03T03:45:35.305Z,16.10
2022-10-03T03:50:20.260Z,19.33
2022-10-03T03:55:06.738Z,17.73
2022-10-03T03:59:44.513Z,17.40
2022-10-03T04:04:00.831Z,17.37
2022-10-03T04:08:34.601Z,24.70
2022-10-03T04:12:49.673Z,25.27
2022-10-03T04:17:46.454Z,23.23
2022-10-03T04:21:50.657Z,21.50
2022-10-03T04:26:18.910Z,19.30
2022-10-03T04:30:43.443Z,22.70
2022-10-03T04:34:55.130Z,20.50
2022-10-03T04:39:32.512Z,16.00
2022-10-03T04:43:53.835Z,18.27
2022-10-03T04:48:01.299Z,15.83
2022-10-03T04:52:13.367Z,20.43
2022-10-03T04:56:40.520Z,12.73
2022-10-03T05:01:24.800Z,21.23
2022-10-03T05:05:47.614Z,20.47
2022-10-03T05:09:56.930Z,14.00
2022-10-03T05:14:20.377Z,20.33
2022-10-03T05:18:27.776Z,17.13
2022-10-03T05:22:56.279Z,18.83
2022-10-03T05:27:40.969Z,21.77
2022-10-03T05:32:14.934Z,20.77
2022-10-03T05:36:41.653Z,27.20
2022-10-03T05:40:51.084Z,19.23
2022-10-03T05:45:30.502Z,21.20
2022-10-03T05:50:00.441Z,18.47
2022-10-03T05:54:47.781Z,17.80
2022-10-03T05:59:19.035Z,19.70
2022-10-03T06:03:42.841Z,15.50
2022-10-03T06:08:41.932Z,20.93
2022-10-03T06:13:11.410Z,16.90
2022-10-03T06:17:56.579Z,18.93
2022-10-03T06:22:27.744Z,19.67
2022-10-03T06:26:46.240Z,20.90
2022-10-03T06:31:12.466Z,21.40
2022-10-03T06:35:46.132Z,19.43
2022-10-03T06:40:47.598Z,17.60
2022-10-03T06:45:22.393Z,17.63
2022-10-03T06:49:50.825Z,18.77
2022-10-03T06:54:09.564Z,14.67
2022-10-03T06:58:53.490Z,14.00
2022-10-03T07:02:56.602Z,15.07
2022-10-03T07:07:19.626Z,11.80
2022-10-03T07:12:13.471Z,14.63
2022-10-03T07:16:48.781Z,14.43
2022-10-03T07:21:44.364Z,16.13
2022-10-03T07:26:10.975Z,13.70
2022-10-03T07:30:21.922Z,15.33
2022-10-03T07:35:15.429Z,12.43
2022-10-03T07:39:35.871Z,17.27
2022-10-03T07:43:56.148Z,14.60
2022-10-03T07:48:35.858Z,14.13
2022-10-03T07:52:57.445Z,13.47
2022-10-03T07:57:32.882Z,15.67
2022-10-03T08:02:23.251Z,12.20
2022-10-03T08:06:38.841Z,15.70
2022-10-03T08:11:14.858Z,10.57
2022-10-03T08:15:28.058Z,9.57
2022-10-03T08:19:42.997Z,11.17
2022-10-03T08:24:05.287Z,10.97
2022-10-03T08:28:44.342Z,6.07
2022-10-03T08:33:05.116Z,11.30
2022-10-03T08:37:29.165Z,9.23
2022-10-03T08:42:08.003Z,12.67
2022-10-03T08:46:37.655Z,6.97
2022-10-03T08:51:12.702Z,11.17
2022-10-03T08:55:45.663Z,10.80
2022-10-03T09:00:12.769Z,9.13
2022-10-03T09:04:49.886Z,9.52
2022-10-03T09:09:14.936Z,9.52
2022-10-03T09:13:50.871Z,6.97
2022-10-03T09:18:27.166Z,8.73
2022-10-03T09:22:53.831Z,7.43
2022-10-03T09:27:22.620Z,8.73
2022-10-03T09:31:38.212Z,7.57
2022-10-03T09:36:13.132Z,7.95
2022-10-03T09:41:09.894Z,7.35
2022-10-03T09:45:34.810Z,7.78
2022-10-03T09:50:19.468Z,8.10
2022-10-03T09:54:57.026Z,7.45
2022-10-03T09:59:22.673Z,7.93
2022-10-03T10:03:51.009Z,7.72
2022-10-03T10:07:57.163Z,6.55
2022-10-03T10:12:15.243Z,9.20
2022-10-03T10:16:54.185Z,6.85
2022-10-03T10:21:34.142Z,7.88
2022-10-03T10:26:34.619Z,5.60
2022-10-03T10:31:05.525Z,7.30
2022-10-03T10:35:44.614Z,12.00
2022-10-03T10:40:15.106Z,5.60
2022-10-03T10:45:01.634Z,10.00
2022-10-03T10:49:45.940Z,5.65
2022-10-03T10:54:24.515Z,6.88
2022-10-03T10:58:58.404Z,6.75
2022-10-03T11:03:54.420Z,6.28
2022-10-03T11:08:10.040Z,7.50
2022-10-03T11:12:58.845Z,8.10
2022-10-03T11:17:39.690Z,6.53
2022-10-03T11:22:26.614Z,7.38
2022-10-03T11:27:16.633Z,5.72
2022-10-03T11:32:09.721Z,6.85
2022-10-03T11:36:49.966Z,4.82
2022-10-03T11:41:16.397Z,3.63
2022-10-03T11:45:33.365Z,6.40
2022-10-03T11:50:25.793Z,5.57
2022-10-03T11:54:32.920Z,3.35
2022-10-03T11:58:39.082Z,4.22
2022-10-03T12:03:30.311Z,2.65
2022-10-03T12:07:58.877Z,4.05
2022-10-03T12:12:11.659Z,7.78
2022-10-03T12:16:27.908Z,3.35
2022-10-03T12:20:52.900Z,4.65
2022-10-03T12:24:56.227Z,3.85
2022-10-03T12:28:58.112Z,4.68
2022-10-03T12:33:10.851Z,3.53
2022-10-03T12:37:26.481Z,3.83
2022-10-03T12:42:05.511Z,4.05
2022-10-03T12:46:15.870Z,4.65
2022-10-03T12:50:28.074Z,4.88
2022-10-03T12:54:49.573Z,5.65
2022-10-03T12:59:23.851Z,8.48
2022-10-03T13:03:26.114Z,5.72
2022-10-03T13:07:38.601Z,4.05
2022-10-03T13:12:11.598Z,4.80
2022-10-03T13:16:43.756Z,4.40
2022-10-03T13:20:50.289Z,4.18
2022-10-03T13:25:21.919Z,4.57
2022-10-03T13:29:34.820Z,4.35
2022-10-03T13:33:51.324Z,4.50
2022-10-03T13:38:31.861Z,2.33
2022-10-03T13:42:53.878Z,3.15
2022-10-03T13:47:28.201Z,3.95
2022-10-03T13:51:53.932Z,5.70
2022-10-03T13:55:58.588Z,3.90
2022-10-03T14:00:16.390Z,4.32
2022-10-03T14:04:53.418Z,5.00
2022-10-03T14:09:05.370Z,6.15
2022-10-03T14:13:32.454Z,4.25
2022-10-03T14:17:54.511Z,6.18
2022-10-03T14:22:28.373Z,3.40
2022-10-03T14:26:36.598Z,5.40
2022-10-03T14:31:05.064Z,6.88
2022-10-03T14:35:46.180Z,4.07
2022-10-03T14:40:20.664Z,3.08
2022-10-03T14:44:29.903Z,4.05
2022-10-03T14:48:40.373Z,5.55
2022-10-03T14:53:02.109Z,3.42
2022-10-03T14:57:00.157Z,2.83
2022-10-03T15:01:12.567Z,5.55
2022-10-03T15:05:38.518Z,6.63
2022-10-03T15:09:50.099Z,7.47
2022-10-03T15:13:56.914Z,4.10
2022-10-03T15:18:00.609Z,6.82
2022-10-03T15:22:27.277Z,5.15
2022-10-03T15:26:31.009Z,5.07
2022-10-03T15:30:35.456Z,6.82
2022-10-03T15:34:40.292Z,8.35
2022-10-03T15:38:45.001Z,7.13
2022-10-03T15:43:01.449Z,5.03
2022-10-03T15:47:14.096Z,5.90
2022-10-03T15:51:19.771Z,7.78
2022-10-03T15:55:46.726Z,8.75
2022-10-03T15:59:47.170Z,7.85
2022-10-03T16:03:52.482Z,6.35
2022-10-03T16:08:06.862Z,5.35
2022-10-03T16:12:22.538Z,6.13
2022-10-03T16:16:35.848Z,7.05
2022-10-03T16:20:45.764Z,6.93
2022-10-03T16:25:28.043Z,7.73
2022-10-03T16:29:33.411Z,10.17
2022-10-03T16:34:16.594Z,6.03
2022-10-03T16:38:46.438Z,11.90
2022-10-03T16:42:50.287Z,9.00
2022-10-03T16:46:49.398Z,15.27
2022-10-03T16:50:53.887Z,11.00
2022-10-03T16:55:02.916Z,35.30
2022-10-03T16:59:13.215Z,28.03
2022-10-03T17:03:30.514Z,13.90
2022-10-03T17:07:39.301Z,14.97
2022-10-03T17:11:41.643Z,18.73
2022-10-03T17:16:00.020Z,14.43
2022-10-03T17:20:07.855Z,9.23
2022-10-03T17:24:20.928Z,10.03
2022-10-03T17:28:51.130Z,11.47
2022-10-03T17:33:08.892Z,11.60
2022-10-03T17:37:26.414Z,10.33
2022-10-03T17:42:04.447Z,11.13
2022-10-03T17:46:33.616Z,12.53
2022-10-03T17:50:40.071Z,10.50
2022-10-03T17:54:39.881Z,12.60
2022-10-03T17:58:45.596Z,15.63
2022-10-03T18:03:13.795Z,15.30
2022-10-03T18:07:22.733Z,12.40
2022-10-03T18:11:29.944Z,12.77
2022-10-03T18:16:11.396Z,13.53
2022-10-03T18:20:35.660Z,12.80
2022-10-03T18:25:36.283Z,13.50
2022-10-03T18:29:51.094Z,17.40
2022-10-03T18:34:09.214Z,11.67
2022-10-03T18:38:25.024Z,12.83
2022-10-03T18:42:30.448Z,16.33
2022-10-03T18:46:42.766Z,16.87
2022-10-03T18:50:59.294Z,12.07
2022-10-03T18:55:29.696Z,9.07
2022-10-03T18:59:47.844Z,10.47
2022-10-03T19:04:05.211Z,11.97
2022-10-03T19:08:38.925Z,11.57
2022-10-03T19:12:43.859Z,7.60
2022-10-03T19:17:05.435Z,11.73
2022-10-03T19:21:21.305Z,10.47
2022-10-03T19:25:25.342Z,13.47
2022-10-03T19:29:29.854Z,8.20
2022-10-03T19:33:32.017Z,8.23
2022-10-03T19:37:45.528Z,6.33
2022-10-03T19:42:19.715Z,9.47
2022-10-03T19:46:22.978Z,17.17
2022-10-03T19:50:36.124Z,8.37
2022-10-03T19:54:58.573Z,12.27
2022-10-03T19:59:15.593Z,13.47
2022-10-03T20:03:16.849Z,18.27
2022-10-03T20:07:25.666Z,19.67
2022-10-03T20:11:44.147Z,17.90
2022-10-03T20:15:47.230Z,16.90
2022-10-03T20:19:57.275Z,13.03
2022-10-03T20:23:56.894Z,11.27
2022-10-03T20:27:58.152Z,11.40
2022-10-03T20:32:04.716Z,10.47
2022-10-03T20:36:14.139Z,12.97
2022-10-03T20:40:28.388Z,13.80
2022-10-03T20:44:49.944Z,8.33
2022-10-03T20:49:15.788Z,8.77
2022-10-03T20:53:20.781Z,11.17
2022-10-03T20:57:52.364Z,43.00
2022-10-03T21:02:06.345Z,47.80
2022-10-03T21:06:16.644Z,15.57
2022-10-03T21:10:55.533Z,14.57
2022-10-03T21:15:04.563Z,13.43
2022-10-03T21:19:06.005Z,11.63
2022-10-03T21:23:14.490Z,9.13
2022-10-03T21:27:18.166Z,13.27
2022-10-03T21:31:26.246Z,14.50
2022-10-03T21:35:35.464Z,12.50
2022-10-03T21:40:18.001Z,19.10
2022-10-03T21:44:57.746Z,14.20
2022-10-03T21:49:13.712Z,21.23
2022-10-03T21:53:29.701Z,22.23
2022-10-03T21:58:23.731Z,19.70
2022-10-03T22:03:03.609Z,14.97
2022-10-03T22:07:15.031Z,13.90
2022-10-03T22:11:44.934Z,14.03
2022-10-03T22:16:09.910Z,15.83
2022-10-03T22:20:15.799Z,18.07
2022-10-03T22:24:29.476Z,29.73
2022-10-03T22:29:01.762Z,18.33
2022-10-03T22:33:18.888Z,12.07
2022-10-03T22:37:16.606Z,15.30
2022-10-03T22:41:21.868Z,19.50
2022-10-03T22:45:20.174Z,15.47
2022-10-03T22:49:26.871Z,12.87
2022-10-03T22:53:31.297Z,9.23
2022-10-03T22:57:31.757Z,11.70
2022-10-03T23:01:32.234Z,14.37
2022-10-03T23:06:09.766Z,12.30
2022-10-03T23:10:26.439Z,12.13
2022-10-03T23:14:32.336Z,13.90
2022-10-03T23:18:59.134Z,9.90
2022-10-03T23:23:02.324Z,8.80
2022-10-03T23:27:21.798Z,12.43
2022-10-03T23:32:09.319Z,9.13
2022-10-03T23:36:24.616Z,11.07
2022-10-03T23:40:40.047Z,13.97
2022-10-03T23:45:00.898Z,13.17
2022-10-03T23:49:02.009Z,12.20
2022-10-03T23:53:00.911Z,14.87
2022-10-03T23:57:07.957Z,10.67
